Time;durP1;ratioP1;P1;durP2;ratioP2;P2;SDS_P1;SDS_P2;PMS_P1;PMS_P2;Temp;Humidity;BMP_temperature;BMP_pressure;BME280_temperature;BME280_humidity;BME280_pressure;Samples;Min_cycle;Max_cycle;Signal;HPM_P1;HPM_P2
2023/07/22 00:00:14;;;;;;;12.32;9.57;;;14.50;99.90;;;;;;5044522;28;20639;-79
2023/07/22 00:02:40;;;;;;;14.32;10.27;;;14.40;99.90;;;;;;5048890;28;20218;-82
2023/07/22 00:05:10;;;;;;;12.52;9.40;;;14.40;99.90;;;;;;5048287;28;20251;-82
2023/07/22 00:07:37;;;;;;;12.15;9.27;;;14.40;99.90;;;;;;5049978;28;20207;-82
2023/07/22 00:10:05;;;;;;;13.85;9.45;;;14.40;99.90;;;;;;5046951;28;20330;-83
2023/07/22 00:12:34;;;;;;;11.95;9.18;;;14.40;99.90;;;;;;5050583;28;20730;-80
2023/07/22 00:15:02;;;;;;;13.02;8.98;;;14.30;99.90;;;;;;5046228;28;20231;-78
2023/07/22 00:17:29;;;;;;;12.68;9.27;;;14.20;99.90;;;;;;5049545;28;20254;-80
2023/07/22 00:19:56;;;;;;;11.70;9.63;;;14.20;99.90;;;;;;5054050;28;20250;-84
2023/07/22 00:22:23;;;;;;;10.60;9.45;;;14.20;99.90;;;;;;5054802;28;20209;-79
2023/07/22 00:24:51;;;;;;;19.40;10.15;;;14.20;99.90;;;;;;5053296;28;20314;-82
2023/07/22 00:27:18;;;;;;;13.23;9.90;;;14.10;99.90;;;;;;5054992;28;20199;-77
2023/07/22 00:29:46;;;;;;;12.70;9.82;;;14.20;99.90;;;;;;5054054;28;20314;-80
2023/07/22 00:32:14;;;;;;;15.55;10.95;;;14.10;99.90;;;;;;5043059;28;20246;-80
2023/07/22 00:34:42;;;;;;;12.40;9.23;;;14.10;99.90;;;;;;5054349;28;20230;-80
2023/07/22 00:37:08;;;;;;;17.70;11.20;;;14.10;99.90;;;;;;5052170;28;20303;-81
2023/07/22 00:39:36;;;;;;;14.40;9.73;;;14.10;99.90;;;;;;5054570;28;20286;-79
2023/07/22 00:42:03;;;;;;;12.40;9.25;;;14.10;99.90;;;;;;5047011;28;20571;-78
2023/07/22 00:44:29;;;;;;;12.32;9.30;;;14.10;99.90;;;;;;5047159;28;20232;-80
2023/07/22 00:46:58;;;;;;;15.02;12.70;;;14.00;99.90;;;;;;5044789;28;20586;-82
2023/07/22 00:49:27;;;;;;;14.90;12.18;;;14.00;99.90;;;;;;5052680;28;20227;-82
2023/07/22 00:51:54;;;;;;;12.68;9.95;;;14.00;99.90;;;;;;5052505;28;20283;-79
2023/07/22 00:54:21;;;;;;;13.95;10.05;;;14.00;99.90;;;;;;5052117;28;20283;-82
2023/07/22 00:56:49;;;;;;;16.95;10.38;;;14.00;99.90;;;;;;5053792;28;20204;-80
2023/07/22 00:59:17;;;;;;;13.73;9.50;;;13.90;99.90;;;;;;5041044;28;20201;-82
2023/07/22 01:01:44;;;;;;;13.60;9.85;;;13.90;99.90;;;;;;5054082;28;20568;-81
2023/07/22 01:04:16;;;;;;;12.00;8.63;;;13.90;99.90;;;;;;5046276;28;20714;-80
2023/07/22 01:06:44;;;;;;;13.80;10.13;;;13.80;99.90;;;;;;5049054;28;20220;-81
2023/07/22 01:09:13;;;;;;;16.83;10.45;;;13.80;99.90;;;;;;5054160;28;20212;-82
2023/07/22 01:11:40;;;;;;;15.07;10.45;;;13.80;99.90;;;;;;5045070;28;20210;-80
2023/07/22 01:14:07;;;;;;;20.48;10.60;;;13.80;99.90;;;;;;5052788;28;20306;-83
2023/07/22 01:16:35;;;;;;;13.23;10.45;;;13.60;99.90;;;;;;5051137;28;20599;-79
2023/07/22 01:19:02;;;;;;;13.32;9.50;;;13.80;99.90;;;;;;5050860;28;20196;-78
2023/07/22 01:21:34;;;;;;;12.95;9.35;;;13.80;99.90;;;;;;5050959;28;20486;-81
2023/07/22 01:24:03;;;;;;;14.02;8.25;;;13.80;99.90;;;;;;5045344;28;20220;-81
2023/07/22 01:26:29;;;;;;;11.32;8.98;;;13.70;99.90;;;;;;5052669;28;20287;-82
2023/07/22 01:29:06;;;;;;;14.23;9.00;;;13.70;99.90;;;;;;5052294;28;20207;-82
2023/07/22 01:31:35;;;;;;;14.02;8.75;;;13.70;99.90;;;;;;5029724;28;20345;-83
2023/07/22 01:34:04;;;;;;;16.10;9.65;;;13.70;99.90;;;;;;5052445;28;20222;-78
2023/07/22 01:36:32;;;;;;;14.10;9.85;;;13.70;99.90;;;;;;5036460;28;20203;-82
2023/07/22 01:39:00;;;;;;;12.77;9.40;;;13.70;99.90;;;;;;5052222;28;20208;-79
2023/07/22 01:41:28;;;;;;;11.10;8.18;;;13.60;99.90;;;;;;5052913;28;20202;-79
2023/07/22 01:43:55;;;;;;;12.48;8.63;;;13.60;99.90;;;;;;5042962;28;20640;-78
2023/07/22 01:46:22;;;;;;;15.57;10.27;;;13.60;99.90;;;;;;5056026;28;20250;-78
2023/07/22 01:48:49;;;;;;;10.60;8.07;;;13.60;99.90;;;;;;5055498;28;20202;-83
2023/07/22 01:51:16;;;;;;;14.10;8.20;;;13.60;99.90;;;;;;5040140;28;20303;-82
2023/07/22 01:53:44;;;;;;;13.80;8.27;;;13.60;99.90;;;;;;5052879;28;20309;-81
2023/07/22 01:56:10;;;;;;;13.65;8.15;;;13.60;99.90;;;;;;5045448;28;20658;-83
2023/07/22 01:58:39;;;;;;;14.95;9.45;;;13.60;99.90;;;;;;5044779;28;20231;-81
2023/07/22 02:01:07;;;;;;;13.35;8.30;;;13.60;99.90;;;;;;5039392;28;20292;-84
2023/07/22 02:03:34;;;;;;;16.20;8.45;;;13.60;99.90;;;;;;5047664;28;20590;-80
2023/07/22 02:06:04;;;;;;;13.07;8.02;;;13.60;99.90;;;;;;5050085;28;20289;-80
2023/07/22 02:08:31;;;;;;;17.20;9.32;;;13.60;99.90;;;;;;5048283;28;20192;-83
2023/07/22 02:11:03;;;;;;;14.18;8.93;;;13.50;99.90;;;;;;5048436;28;20245;-83
2023/07/22 02:13:30;;;;;;;14.10;8.43;;;13.50;99.90;;;;;;5045371;28;20222;-79
2023/07/22 02:15:59;;;;;;;11.75;7.25;;;13.50;99.90;;;;;;5048808;28;20224;-82
2023/07/22 02:18:26;;;;;;;16.00;7.30;;;13.50;99.90;;;;;;5046958;28;20625;-81
2023/07/22 02:20:53;;;;;;;11.55;8.07;;;13.50;99.90;;;;;;5048879;28;20297;-83
2023/07/22 02:23:20;;;;;;;14.82;8.40;;;13.50;99.90;;;;;;5041369;28;20220;-82
2023/07/22 02:25:49;;;;;;;13.05;7.38;;;13.50;99.90;;;;;;5046882;28;20241;-83
2023/07/22 02:28:20;;;;;;;13.07;8.68;;;13.50;99.90;;;;;;5049538;28;20239;-83
2023/07/22 02:30:49;;;;;;;13.98;8.20;;;13.50;99.90;;;;;;5058125;28;20234;-79
2023/07/22 02:33:17;;;;;;;12.60;8.20;;;13.50;99.90;;;;;;5055860;28;20254;-83
2023/07/22 02:35:44;;;;;;;12.40;8.27;;;13.50;99.90;;;;;;5051480;28;20295;-80
2023/07/22 02:38:11;;;;;;;12.05;7.70;;;13.40;99.90;;;;;;5055280;28;20237;-80
2023/07/22 02:40:38;;;;;;;12.05;8.27;;;13.40;99.90;;;;;;5055811;28;20219;-80
2023/07/22 02:43:06;;;;;;;14.27;9.10;;;13.40;99.90;;;;;;5049874;28;20643;-82
2023/07/22 02:45:33;;;;;;;16.35;8.85;;;13.30;99.90;;;;;;5046571;28;20626;-80
2023/07/22 02:48:01;;;;;;;16.90;9.88;;;13.30;99.90;;;;;;5044191;28;20248;-78
2023/07/22 02:50:29;;;;;;;12.25;9.05;;;13.30;99.90;;;;;;5048185;28;20252;-80
2023/07/22 02:52:56;;;;;;;10.10;7.75;;;13.30;99.90;;;;;;5047079;28;20202;-84
2023/07/22 02:55:24;;;;;;;11.30;7.82;;;13.30;99.90;;;;;;5037835;28;20210;-83
2023/07/22 02:57:52;;;;;;;12.32;9.07;;;13.30;99.90;;;;;;5047231;28;20213;-81
2023/07/22 03:00:23;;;;;;;18.90;9.15;;;13.20;99.90;;;;;;5045345;28;20202;-82
2023/07/22 03:02:52;;;;;;;14.73;9.93;;;13.20;99.90;;;;;;5052476;28;20629;-85
2023/07/22 03:05:19;;;;;;;19.40;11.55;;;13.20;99.90;;;;;;5041954;28;20673;-82
2023/07/22 03:07:48;;;;;;;12.40;7.18;;;13.20;99.90;;;;;;5045947;28;20259;-84
2023/07/22 03:10:15;;;;;;;12.88;9.25;;;13.20;99.90;;;;;;5045281;28;20217;-82
2023/07/22 03:12:42;;;;;;;10.57;7.53;;;13.10;99.90;;;;;;5049119;28;20206;-79
2023/07/22 03:15:09;;;;;;;18.63;9.13;;;13.20;99.90;;;;;;5041710;28;20224;-82
2023/07/22 03:17:37;;;;;;;13.07;8.23;;;13.20;99.90;;;;;;5039895;28;20641;-80
2023/07/22 03:20:08;;;;;;;13.85;8.95;;;13.20;99.90;;;;;;5042774;28;20579;-83
2023/07/22 03:22:35;;;;;;;13.45;8.32;;;13.20;99.90;;;;;;5048339;28;20649;-80
2023/07/22 03:25:07;;;;;;;12.38;9.10;;;13.10;99.90;;;;;;5046525;28;20223;-82
2023/07/22 03:27:35;;;;;;;14.77;10.10;;;13.10;99.90;;;;;;5047407;28;20289;-81
2023/07/22 03:30:02;;;;;;;12.02;8.98;;;13.10;99.90;;;;;;5046566;28;20233;-81
2023/07/22 03:32:30;;;;;;;12.02;8.13;;;13.10;99.90;;;;;;5040982;28;20205;-79
2023/07/22 03:34:56;;;;;;;10.70;7.72;;;13.10;99.90;;;;;;5048660;28;20230;-81
2023/07/22 03:37:23;;;;;;;11.45;7.97;;;13.10;99.90;;;;;;5040353;28;20301;-83
2023/07/22 03:39:50;;;;;;;17.35;9.00;;;13.10;99.90;;;;;;5054631;28;20265;-80
2023/07/22 03:42:19;;;;;;;13.93;8.15;;;13.20;99.90;;;;;;5054700;28;21704;-81
2023/07/22 03:44:45;;;;;;;11.02;8.45;;;13.20;99.90;;;;;;5055955;28;20302;-81
2023/07/22 03:47:12;;;;;;;18.27;9.45;;;13.20;99.90;;;;;;5052917;28;20632;-82
2023/07/22 03:49:39;;;;;;;14.00;8.45;;;13.20;99.90;;;;;;5055941;28;20205;-82
2023/07/22 03:52:07;;;;;;;12.43;7.97;;;13.20;99.90;;;;;;5058719;28;20305;-79
2023/07/22 03:54:34;;;;;;;13.35;9.70;;;13.30;99.90;;;;;;5067893;28;20264;-80
2023/07/22 03:57:01;;;;;;;8.82;7.20;;;13.30;99.90;;;;;;5062913;28;20209;-82
2023/07/22 03:59:29;;;;;;;13.27;8.15;;;13.30;99.90;;;;;;5043376;28;20237;-81
2023/07/22 04:01:56;;;;;;;14.40;8.48;;;13.30;99.90;;;;;;5053079;28;20202;-80
2023/07/22 04:04:22;;;;;;;12.13;8.15;;;13.40;99.90;;;;;;5040161;28;20226;-82
2023/07/22 04:06:49;;;;;;;14.93;8.70;;;13.40;99.90;;;;;;5052990;28;20225;-79
2023/07/22 04:09:17;;;;;;;16.50;7.95;;;13.40;99.90;;;;;;5050744;28;20188;-82
2023/07/22 04:11:44;;;;;;;12.88;8.18;;;13.50;99.90;;;;;;5043657;28;20765;-82
2023/07/22 04:14:12;;;;;;;10.93;8.02;;;13.50;99.90;;;;;;5051373;28;20302;-81
2023/07/22 04:16:40;;;;;;;12.20;8.60;;;13.50;99.90;;;;;;5054589;28;20250;-81
2023/07/22 04:19:07;;;;;;;13.95;7.50;;;13.50;99.90;;;;;;5047551;28;20196;-80
2023/07/22 04:21:34;;;;;;;13.23;9.57;;;13.60;99.90;;;;;;5051696;28;20231;-82
2023/07/22 04:24:01;;;;;;;19.10;8.82;;;13.60;99.90;;;;;;5044165;28;20262;-80
2023/07/22 04:26:28;;;;;;;14.50;8.75;;;13.70;99.90;;;;;;5053139;28;20651;-85
2023/07/22 04:28:56;;;;;;;11.88;7.57;;;13.70;99.90;;;;;;5054806;28;20216;-79
2023/07/22 04:31:23;;;;;;;12.18;8.38;;;14.00;99.90;;;;;;5045231;28;20227;-82
2023/07/22 04:33:52;;;;;;;13.65;7.72;;;14.40;99.90;;;;;;5050594;28;20589;-81
2023/07/22 04:36:18;;;;;;;10.88;6.95;;;15.00;99.90;;;;;;5045227;28;20247;-85
2023/07/22 04:38:45;;;;;;;13.23;7.75;;;15.50;99.90;;;;;;5047110;28;20303;-84
2023/07/22 04:41:12;;;;;;;11.13;7.00;;;16.20;99.90;;;;;;5050028;28;20203;-80
2023/07/22 04:43:40;;;;;;;13.30;8.20;;;16.70;99.90;;;;;;5041424;28;20477;-82
2023/07/22 04:46:07;;;;;;;8.73;6.20;;;17.00;99.90;;;;;;5049426;28;20461;-80
2023/07/22 04:48:36;;;;;;;9.17;6.10;;;17.50;99.90;;;;;;5046852;28;20459;-81
2023/07/22 04:51:05;;;;;;;10.30;6.30;;;18.20;99.90;;;;;;5048928;28;20485;-81
2023/07/22 04:53:33;;;;;;;9.70;7.30;;;18.90;99.90;;;;;;5047554;28;21027;-81
2023/07/22 04:56:00;;;;;;;8.30;6.40;;;19.20;99.90;;;;;;5050711;28;20529;-81
2023/07/22 04:58:27;;;;;;;10.03;6.17;;;19.50;99.90;;;;;;5045665;28;20434;-79
2023/07/22 05:00:53;;;;;;;12.60;6.37;;;19.50;99.90;;;;;;5051374;28;20525;-84
2023/07/22 05:03:20;;;;;;;13.57;7.47;;;19.40;99.90;;;;;;5047756;28;20540;-82
2023/07/22 05:05:47;;;;;;;7.80;6.10;;;19.40;99.90;;;;;;5035828;28;20459;-81
2023/07/22 05:08:16;;;;;;;15.40;7.50;;;19.90;99.90;;;;;;5037890;28;20446;-83
2023/07/22 05:10:43;;;;;;;8.63;6.03;;;20.40;99.90;;;;;;5042170;28;20837;-83
2023/07/22 05:13:10;;;;;;;9.00;5.43;;;21.00;99.90;;;;;;5044943;28;20556;-81
2023/07/22 05:15:37;;;;;;;7.90;6.10;;;20.90;99.90;;;;;;5038604;28;20537;-81
2023/07/22 05:18:04;;;;;;;13.63;6.77;;;21.00;99.90;;;;;;5046094;28;20451;-82
2023/07/22 05:20:31;;;;;;;9.23;5.90;;;21.30;99.90;;;;;;5043134;28;20434;-81
2023/07/22 05:22:58;;;;;;;12.53;5.33;;;22.00;99.90;;;;;;5046782;28;20456;-83
2023/07/22 05:25:27;;;;;;;9.77;5.80;;;22.10;99.90;;;;;;5045523;28;20936;-78
2023/07/22 05:27:53;;;;;;;12.20;7.43;;;21.80;99.90;;;;;;5040480;28;20929;-84
2023/07/22 05:30:21;;;;;;;22.10;14.40;;;21.10;99.90;;;;;;5048645;28;20472;-82
2023/07/22 05:32:48;;;;;;;12.13;8.60;;;20.30;99.90;;;;;;5042019;28;20488;-79
2023/07/22 05:35:15;;;;;;;11.40;6.50;;;20.20;99.90;;;;;;5045664;28;20535;-78
2023/07/22 05:37:41;;;;;;;10.17;7.43;;;19.90;99.90;;;;;;5050348;28;20525;-79
2023/07/22 05:40:09;;;;;;;12.83;7.97;;;19.60;99.90;;;;;;5045326;28;20542;-81
2023/07/22 05:42:38;;;;;;;24.40;17.10;;;19.30;99.90;;;;;;5046978;28;20446;-80
2023/07/22 05:45:05;;;;;;;12.83;8.37;;;19.20;99.90;;;;;;5044180;28;20625;-80
2023/07/22 05:47:33;;;;;;;12.20;8.40;;;19.20;99.90;;;;;;5043780;28;20530;-81
2023/07/22 05:49:59;;;;;;;10.70;7.67;;;19.00;99.90;;;;;;5053081;28;20446;-79
2023/07/22 05:52:26;;;;;;;9.60;6.00;;;18.50;99.90;;;;;;5044252;28;20486;-82
2023/07/22 05:54:53;;;;;;;11.87;7.03;;;18.20;99.90;;;;;;5039505;28;20999;-80
2023/07/22 05:57:20;;;;;;;19.17;10.20;;;18.30;99.90;;;;;;5042535;28;20534;-80
2023/07/22 05:59:49;;;;;;;10.23;6.33;;;18.30;99.90;;;;;;5041714;28;20948;-81
2023/07/22 06:02:18;;;;;;;10.67;6.23;;;18.40;99.90;;;;;;5039839;28;20497;-85
2023/07/22 06:04:45;;;;;;;12.20;7.60;;;18.50;99.90;;;;;;5056876;28;20474;-85
2023/07/22 06:07:12;;;;;;;17.40;6.73;;;19.00;99.90;;;;;;5062513;28;20471;-83
2023/07/22 06:09:46;;;;;;;12.50;7.87;;;19.50;99.90;;;;;;5056418;28;20545;-84
2023/07/22 06:12:13;;;;;;;11.20;5.93;;;19.70;99.90;;;;;;5048325;28;20997;-82
2023/07/22 06:14:40;;;;;;;7.33;5.60;;;20.00;99.90;;;;;;5053010;28;20475;-83
2023/07/22 06:17:09;;;;;;;8.10;5.50;;;20.90;99.90;;;;;;5052870;28;20738;-81
2023/07/22 06:19:35;;;;;;;8.90;6.20;;;21.90;99.00;;;;;;5047061;28;20521;-82
2023/07/22 06:22:03;;;;;;;7.00;5.60;;;22.10;97.60;;;;;;5047848;28;20537;-80
2023/07/22 06:24:30;;;;;;;9.53;7.50;;;22.20;96.80;;;;;;5043110;28;20463;-82
2023/07/22 06:26:57;;;;;;;18.93;16.27;;;22.00;96.80;;;;;;5043016;28;20809;-80
2023/07/22 06:29:24;;;;;;;14.90;12.40;;;22.00;97.00;;;;;;5047841;28;20457;-82
2023/07/22 06:31:51;;;;;;;9.47;6.13;;;21.70;97.10;;;;;;5052263;28;20485;-81
2023/07/22 06:34:20;;;;;;;15.43;9.70;;;21.10;97.80;;;;;;5048027;28;20485;-82
2023/07/22 06:36:47;;;;;;;10.07;7.10;;;20.70;99.30;;;;;;5037522;28;20532;-82
2023/07/22 06:39:14;;;;;;;9.33;5.40;;;20.60;99.90;;;;;;5047916;28;20451;-81
2023/07/22 06:41:41;;;;;;;8.43;4.73;;;20.30;99.90;;;;;;5045334;28;21081;-82
2023/07/22 06:44:08;;;;;;;8.47;5.47;;;19.80;99.90;;;;;;5045589;28;20929;-79
2023/07/22 06:46:35;;;;;;;14.27;6.03;;;19.70;99.90;;;;;;5051733;28;20842;-77
2023/07/22 06:49:02;;;;;;;6.60;4.93;;;19.80;99.90;;;;;;5040306;28;20813;-77
2023/07/22 06:51:31;;;;;;;12.10;6.00;;;19.70;99.90;;;;;;5040057;28;20572;-78
2023/07/22 06:53:57;;;;;;;7.40;5.17;;;19.80;99.90;;;;;;5044849;28;20523;-76
2023/07/22 06:56:26;;;;;;;11.77;6.43;;;20.00;99.90;;;;;;5042333;28;20532;-77
2023/07/22 06:58:52;;;;;;;7.10;5.07;;;20.70;99.90;;;;;;5042257;28;20556;-78
2023/07/22 07:01:19;;;;;;;18.70;11.60;;;21.00;99.90;;;;;;5041797;28;20454;-78
2023/07/22 07:03:46;;;;;;;7.40;5.60;;;21.10;99.80;;;;;;5052081;28;20572;-78
2023/07/22 07:06:13;;;;;;;10.53;6.30;;;21.40;99.30;;;;;;5050994;28;20525;-78
2023/07/22 07:08:41;;;;;;;5.83;4.60;;;21.50;98.20;;;;;;5052162;28;20476;-77
2023/07/22 07:11:08;;;;;;;18.73;11.47;;;21.10;97.80;;;;;;5049774;28;20513;-77
2023/07/22 07:13:36;;;;;;;8.77;5.60;;;21.30;98.80;;;;;;5055688;28;20505;-78
2023/07/22 07:16:21;;;;;;;12.33;8.83;;;21.80;97.60;;;;;;5052711;28;20439;-78
2023/07/22 07:18:48;;;;;;;9.00;5.90;;;22.30;97.50;;;;;;5048392;28;20540;-79
2023/07/22 07:21:15;;;;;;;10.30;7.83;;;23.00;95.90;;;;;;5054743;28;20474;-79
2023/07/22 07:23:43;;;;;;;5.90;3.73;;;23.20;95.00;;;;;;5055660;28;20496;-78
2023/07/22 07:26:10;;;;;;;7.80;5.60;;;23.00;94.50;;;;;;5055303;28;20446;-77
2023/07/22 07:28:36;;;;;;;7.03;4.90;;;22.60;94.70;;;;;;5048359;28;20475;-78
2023/07/22 07:31:03;;;;;;;7.73;5.50;;;22.80;94.90;;;;;;5052461;28;20501;-77
2023/07/22 07:33:30;;;;;;;9.33;6.30;;;22.90;94.70;;;;;;5045465;28;20826;-78
2023/07/22 07:35:57;;;;;;;11.23;7.00;;;22.60;94.80;;;;;;5046118;28;20450;-78
2023/07/22 07:38:24;;;;;;;8.63;5.20;;;22.70;95.50;;;;;;5044978;28;20825;-77
2023/07/22 07:40:54;;;;;;;9.10;5.47;;;22.70;95.30;;;;;;5046154;28;20542;-77
2023/07/22 07:43:21;;;;;;;8.90;4.93;;;22.60;95.30;;;;;;5049031;28;20472;-76
2023/07/22 07:45:48;;;;;;;6.70;4.40;;;22.30;95.30;;;;;;5050814;28;20462;-78
2023/07/22 07:48:15;;;;;;;10.80;5.70;;;22.20;96.00;;;;;;5045687;28;20447;-76
2023/07/22 07:50:42;;;;;;;5.70;4.27;;;22.10;96.30;;;;;;5044197;28;20527;-76
2023/07/22 07:53:09;;;;;;;8.53;4.40;;;21.60;96.10;;;;;;5044497;28;20572;-77
2023/07/22 07:55:36;;;;;;;6.63;4.37;;;21.50;97.20;;;;;;5052863;28;20450;-77
2023/07/22 07:58:05;;;;;;;9.47;6.73;;;21.20;98.10;;;;;;5044250;28;20449;-77
2023/07/22 08:00:31;;;;;;;20.73;12.47;;;20.80;98.30;;;;;;5048068;28;20480;-77
2023/07/22 08:02:59;;;;;;;10.07;8.03;;;20.50;99.90;;;;;;5054964;28;20454;-77
2023/07/22 08:05:26;;;;;;;11.17;7.43;;;20.10;99.90;;;;;;5043848;28;20538;-76
2023/07/22 08:07:53;;;;;;;9.33;5.63;;;20.00;99.90;;;;;;5045200;28;20530;-77
2023/07/22 08:10:20;;;;;;;10.90;4.80;;;19.90;99.90;;;;;;5039605;28;20523;-77
2023/07/22 08:12:47;;;;;;;9.93;5.27;;;20.10;99.90;;;;;;5037053;28;20487;-77
2023/07/22 08:15:16;;;;;;;10.77;5.10;;;20.40;99.90;;;;;;5037384;28;20554;-77
2023/07/22 08:17:43;;;;;;;5.73;3.90;;;21.20;99.90;;;;;;5044044;28;20453;-78
2023/07/22 08:20:11;;;;;;;7.00;4.77;;;22.70;97.30;;;;;;5038407;28;20462;-76
2023/07/22 08:22:38;;;;;;;4.53;3.63;;;23.50;94.70;;;;;;5044104;28;20439;-76
2023/07/22 08:25:06;;;;;;;6.50;4.10;;;23.50;93.60;;;;;;5047302;28;20548;-78
2023/07/22 08:27:33;;;;;;;7.20;4.60;;;23.30;93.60;;;;;;5047617;28;20485;-75
2023/07/22 08:30:00;;;;;;;4.77;4.17;;;23.20;93.50;;;;;;5050202;28;20441;-77
2023/07/22 08:32:28;;;;;;;6.13;4.27;;;23.20;93.60;;;;;;5038747;28;20637;-78
2023/07/22 08:34:56;;;;;;;4.63;4.10;;;23.70;93.10;;;;;;5038292;28;20502;-78
2023/07/22 08:37:23;;;;;;;12.33;8.83;;;24.00;92.90;;;;;;5043751;28;20437;-78
2023/07/22 08:39:50;;;;;;;22.27;13.90;;;24.60;92.50;;;;;;5042256;28;20447;-78
2023/07/22 08:42:20;;;;;;;8.10;5.90;;;25.40;91.40;;;;;;5041044;28;20447;-78
2023/07/22 08:44:49;;;;;;;8.33;5.83;;;25.20;90.50;;;;;;5041856;28;20481;-79
2023/07/22 08:47:20;;;;;;;14.00;8.83;;;25.00;90.50;;;;;;5038297;28;20478;-78
2023/07/22 08:49:53;;;;;;;7.97;5.73;;;24.00;91.60;;;;;;5038872;28;20450;-77
2023/07/22 08:52:20;;;;;;;10.50;5.03;;;23.00;92.00;;;;;;5039993;28;20570;-77
2023/07/22 08:54:48;;;;;;;9.70;5.13;;;22.40;93.10;;;;;;5040891;28;20474;-77
2023/07/22 08:57:15;;;;;;;8.50;5.37;;;21.60;93.30;;;;;;5042200;28;20540;-77
2023/07/22 08:59:43;;;;;;;10.40;5.60;;;21.80;94.60;;;;;;5041576;28;20516;-78
2023/07/22 09:02:13;;;;;;;7.13;5.53;;;21.60;95.00;;;;;;5044211;28;20435;-78
2023/07/22 09:04:40;;;;;;;9.30;5.00;;;21.80;94.80;;;;;;5049201;28;20783;-76
2023/07/22 09:07:09;;;;;;;8.03;5.00;;;21.80;94.70;;;;;;5052947;28;20473;-76
2023/07/22 09:09:37;;;;;;;6.37;5.30;;;22.10;94.40;;;;;;5046162;28;20534;-76
2023/07/22 09:12:07;;;;;;;11.27;5.80;;;22.90;94.40;;;;;;5045468;28;20488;-77
2023/07/22 09:14:35;;;;;;;10.53;6.10;;;23.20;93.20;;;;;;5041985;28;20977;-76
2023/07/22 09:17:02;;;;;;;9.50;5.73;;;22.80;92.90;;;;;;5043665;28;20451;-77
2023/07/22 09:19:30;;;;;;;7.60;6.40;;;22.60;93.50;;;;;;5041222;28;20461;-77
2023/07/22 09:21:58;;;;;;;7.10;5.67;;;22.00;94.30;;;;;;5050666;28;20550;-77
2023/07/22 09:24:29;;;;;;;9.90;7.00;;;21.90;95.40;;;;;;5053235;28;20477;-77
2023/07/22 09:26:56;;;;;;;8.77;6.40;;;22.50;95.00;;;;;;5046037;28;20458;-76
2023/07/22 09:29:35;;;;;;;8.10;6.37;;;22.50;94.20;;;;;;5049133;28;20908;-76
2023/07/22 09:32:03;;;;;;;9.47;6.00;;;23.10;93.70;;;;;;5043369;28;20449;-76
2023/07/22 09:34:30;;;;;;;10.60;7.73;;;23.70;93.20;;;;;;5042852;28;20855;-76
2023/07/22 09:37:00;;;;;;;10.77;6.40;;;24.00;92.40;;;;;;5052275;28;21417;-76
2023/07/22 09:39:28;;;;;;;8.63;7.00;;;24.00;92.10;;;;;;5052848;28;20669;-78
2023/07/22 09:41:55;;;;;;;11.10;6.87;;;24.20;91.80;;;;;;5037683;28;20489;-77
2023/07/22 09:44:22;;;;;;;12.93;7.73;;;24.10;91.10;;;;;;5051098;28;20569;-76
2023/07/22 09:46:50;;;;;;;9.07;6.87;;;24.40;91.10;;;;;;5049540;28;20534;-76
2023/07/22 09:49:19;;;;;;;10.10;6.90;;;24.40;91.40;;;;;;5034154;28;20455;-79
2023/07/22 09:51:46;;;;;;;10.20;7.50;;;24.20;90.80;;;;;;5038125;28;20453;-77
2023/07/22 09:54:13;;;;;;;9.30;7.27;;;24.30;90.70;;;;;;5038282;28;20573;-78
2023/07/22 09:56:48;;;;;;;10.67;7.60;;;23.60;91.70;;;;;;5039668;28;20549;-78
2023/07/22 09:59:15;;;;;;;10.50;8.43;;;23.00;91.80;;;;;;5040217;28;20450;-76
2023/07/22 10:01:45;;;;;;;9.33;7.47;;;22.70;93.00;;;;;;5040363;28;20458;-77
2023/07/22 10:04:16;;;;;;;10.33;7.70;;;22.90;93.40;;;;;;5042600;28;20473;-77
2023/07/22 10:06:44;;;;;;;10.40;7.50;;;23.00;92.70;;;;;;5046529;28;20462;-76
2023/07/22 10:09:12;;;;;;;11.93;7.50;;;22.90;93.30;;;;;;5040323;28;20485;-76
2023/07/22 10:11:40;;;;;;;10.80;6.77;;;23.20;92.80;;;;;;5040327;28;20530;-75
2023/07/22 10:14:09;;;;;;;11.40;7.17;;;23.70;92.10;;;;;;5039946;28;20492;-76
2023/07/22 10:16:37;;;;;;;7.87;6.20;;;23.90;91.50;;;;;;5039936;28;20522;-77
2023/07/22 10:19:06;;;;;;;9.93;7.00;;;24.00;91.70;;;;;;5038560;28;20446;-75
2023/07/22 10:21:34;;;;;;;8.83;7.07;;;24.00;91.50;;;;;;5041509;28;20447;-77
2023/07/22 10:24:02;;;;;;;11.50;7.07;;;24.20;91.90;;;;;;5039610;28;20573;-76
2023/07/22 10:26:29;;;;;;;12.20;8.43;;;24.20;90.70;;;;;;5042951;28;20452;-76
2023/07/22 10:28:57;;;;;;;10.93;7.43;;;24.40;91.00;;;;;;5042066;28;20467;-77
2023/07/22 10:31:26;;;;;;;12.57;7.13;;;24.10;91.00;;;;;;5050548;28;20438;-77
2023/07/22 10:33:53;;;;;;;9.70;7.00;;;23.70;91.10;;;;;;5051777;28;20580;-78
2023/07/22 10:36:19;;;;;;;11.07;7.33;;;23.50;91.90;;;;;;5048805;28;20490;-77
2023/07/22 10:38:57;;;;;;;9.00;7.80;;;23.70;92.20;;;;;;5048997;28;21003;-77
2023/07/22 10:41:24;;;;;;;11.73;7.73;;;23.40;92.50;;;;;;5050119;28;20454;-77
2023/07/22 10:44:01;;;;;;;14.53;7.50;;;23.10;92.30;;;;;;5050314;28;20863;-76
2023/07/22 10:46:38;;;;;;;8.03;6.53;;;23.00;92.60;;;;;;5035682;28;20479;-77
2023/07/22 10:49:12;;;;;;;13.30;6.37;;;22.90;92.90;;;;;;5035607;28;20451;-76
2023/07/22 10:51:39;;;;;;;7.60;6.00;;;22.60;93.20;;;;;;5035228;28;20761;-77
2023/07/22 10:54:13;;;;;;;6.77;5.50;;;22.50;93.40;;;;;;5020697;28;20486;-77
2023/07/22 10:56:42;;;;;;;8.20;5.53;;;22.30;93.50;;;;;;5032787;28;20458;-75
2023/07/22 10:59:11;;;;;;;6.73;4.83;;;21.90;93.30;;;;;;5036343;28;20593;-74
2023/07/22 11:01:40;;;;;;;8.77;5.17;;;22.00;93.50;;;;;;5034867;28;20447;-75
2023/07/22 11:04:22;;;;;;;7.10;5.33;;;22.00;93.20;;;;;;5038992;28;20466;-76
2023/07/22 11:06:56;;;;;;;7.17;5.37;;;22.10;93.20;;;;;;5034501;28;20460;-76
2023/07/22 11:09:44;;;;;;;8.70;5.77;;;22.50;93.30;;;;;;5035949;28;20822;-77
2023/07/22 11:12:16;;;;;;;7.63;5.60;;;22.90;93.00;;;;;;5035445;28;20529;-76
2023/07/22 11:14:49;;;;;;;7.90;5.97;;;23.10;92.30;;;;;;5035720;28;20510;-76
2023/07/22 11:17:18;;;;;;;8.20;5.40;;;22.90;92.10;;;;;;5030003;28;20853;-75
2023/07/22 11:19:46;;;;;;;7.40;5.60;;;22.70;92.30;;;;;;5034888;28;20465;-77
2023/07/22 11:22:13;;;;;;;7.47;5.93;;;22.60;92.30;;;;;;5035184;28;20949;-75
2023/07/22 11:24:40;;;;;;;7.80;7.00;;;22.80;92.60;;;;;;5035249;28;20859;-75
2023/07/22 11:27:09;;;;;;;9.20;6.13;;;22.60;92.50;;;;;;5034940;28;20481;-76
2023/07/22 11:29:36;;;;;;;6.43;4.67;;;22.60;93.00;;;;;;5034742;28;20930;-77
2023/07/22 11:32:04;;;;;;;6.50;4.93;;;22.50;93.10;;;;;;5035196;28;20442;-76
2023/07/22 11:34:32;;;;;;;6.67;5.60;;;22.40;92.80;;;;;;5035192;28;20537;-76
2023/07/22 11:36:59;;;;;;;8.60;5.53;;;22.30;92.60;;;;;;5035196;28;20486;-76
2023/07/22 11:39:31;;;;;;;6.17;5.27;;;22.20;92.60;;;;;;5034858;28;20447;-76
2023/07/22 11:42:04;;;;;;;6.97;5.03;;;22.30;92.40;;;;;;5034719;28;20815;-78
2023/07/22 11:44:32;;;;;;;6.90;5.10;;;22.10;92.40;;;;;;5038851;28;20473;-76
2023/07/22 11:47:01;;;;;;;6.17;5.23;;;22.10;92.40;;;;;;5043590;28;20497;-77
2023/07/22 11:49:30;;;;;;;12.43;8.20;;;22.30;92.90;;;;;;5050066;28;20804;-75
2023/07/22 11:51:59;;;;;;;8.43;5.33;;;22.70;92.30;;;;;;5046422;28;20803;-74
2023/07/22 11:54:28;;;;;;;9.00;6.03;;;22.50;92.30;;;;;;5041245;28;20592;-77
2023/07/22 11:56:58;;;;;;;8.53;5.63;;;22.70;92.70;;;;;;5047554;28;20458;-77
2023/07/22 11:59:36;;;;;;;6.17;4.83;;;22.80;92.60;;;;;;5040179;28;20446;-78
2023/07/22 12:02:05;;;;;;;5.80;5.13;;;22.40;91.90;;;;;;5047808;23;21006;-73
2023/07/22 12:04:32;;;;;;;5.43;4.40;;;22.00;92.00;;;;;;5021168;28;20935;-71
2023/07/22 12:07:01;;;;;;;8.57;5.70;;;21.70;92.70;;;;;;5026594;28;20480;-73
2023/07/22 12:09:29;;;;;;;8.57;4.93;;;21.50;92.90;;;;;;5030614;28;20453;-73
2023/07/22 12:11:58;;;;;;;5.33;4.80;;;21.30;93.40;;;;;;5020949;28;20457;-73
2023/07/22 12:14:25;;;;;;;5.37;4.87;;;21.10;93.50;;;;;;5028507;28;20494;-71
2023/07/22 12:16:57;;;;;;;6.10;4.77;;;21.00;93.90;;;;;;5026325;28;20460;-70
2023/07/22 12:19:24;;;;;;;5.83;4.40;;;20.80;93.90;;;;;;5020402;28;20445;-69
2023/07/22 12:21:51;;;;;;;8.43;5.13;;;20.50;94.30;;;;;;5029223;28;20457;-69
2023/07/22 12:24:19;;;;;;;9.30;5.10;;;20.50;95.10;;;;;;5027674;28;20449;-70
2023/07/22 12:26:46;;;;;;;6.50;4.80;;;20.40;95.30;;;;;;5027424;28;20463;-70
2023/07/22 12:29:12;;;;;;;6.50;5.53;;;20.40;95.50;;;;;;5024459;28;20531;-69
2023/07/22 12:31:39;;;;;;;6.77;4.83;;;20.40;96.40;;;;;;5022406;28;20968;-69
2023/07/22 12:34:06;;;;;;;6.87;4.83;;;20.40;96.70;;;;;;5017149;28;20493;-67
2023/07/22 12:36:33;;;;;;;9.13;6.37;;;20.60;97.40;;;;;;5019065;28;20454;-67
2023/07/22 12:38:59;;;;;;;9.50;5.20;;;20.70;97.10;;;;;;5018866;28;20487;-67
2023/07/22 12:41:28;;;;;;;6.77;5.40;;;20.70;96.50;;;;;;5018944;28;20800;-68
2023/07/22 12:43:54;;;;;;;6.07;4.97;;;20.70;96.30;;;;;;5019891;28;20821;-68